sensor_id;sensor_type;location;lat;lon;timestamp;temperature;humidity
74792;SHT30;63319;46.046;17.802;2024-01-30T00:00:26;1.26;80.27
74792;SHT30;63319;46.046;17.802;2024-01-30T00:03:29;1.07;81.12
74792;SHT30;63319;46.046;17.802;2024-01-30T00:06:32;1.19;81.52
74792;SHT30;63319;46.046;17.802;2024-01-30T00:09:35;1.65;80.17
74792;SHT30;63319;46.046;17.802;2024-01-30T00:12:38;1.20;80.39
74792;SHT30;63319;46.046;17.802;2024-01-30T00:15:41;1.24;81.25
74792;SHT30;63319;46.046;17.802;2024-01-30T00:18:44;1.26;80.06
74792;SHT30;63319;46.046;17.802;2024-01-30T00:21:47;0.82;81.04
74792;SHT30;63319;46.046;17.802;2024-01-30T00:24:50;0.78;81.44
74792;SHT30;63319;46.046;17.802;2024-01-30T00:27:53;1.30;82.70
74792;SHT30;63319;46.046;17.802;2024-01-30T00:30:56;1.22;80.51
74792;SHT30;63319;46.046;17.802;2024-01-30T00:33:59;1.66;79.40
74792;SHT30;63319;46.046;17.802;2024-01-30T00:37:02;1.07;80.67
74792;SHT30;63319;46.046;17.802;2024-01-30T00:40:06;1.00;81.08
74792;SHT30;63319;46.046;17.802;2024-01-30T00:43:09;1.08;81.58
74792;SHT30;63319;46.046;17.802;2024-01-30T00:46:12;1.13;81.42
74792;SHT30;63319;46.046;17.802;2024-01-30T00:49:15;0.90;81.06
74792;SHT30;63319;46.046;17.802;2024-01-30T00:52:18;1.28;80.58
74792;SHT30;63319;46.046;17.802;2024-01-30T00:55:22;1.17;80.04
74792;SHT30;63319;46.046;17.802;2024-01-30T00:58:24;0.93;81.12
74792;SHT30;63319;46.046;17.802;2024-01-30T01:01:28;1.01;80.62
74792;SHT30;63319;46.046;17.802;2024-01-30T01:04:31;1.16;81.05
74792;SHT30;63319;46.046;17.802;2024-01-30T01:07:35;1.10;80.42
74792;SHT30;63319;46.046;17.802;2024-01-30T01:10:38;0.85;81.57
74792;SHT30;63319;46.046;17.802;2024-01-30T01:13:41;0.95;81.91
74792;SHT30;63319;46.046;17.802;2024-01-30T01:16:43;1.01;81.02
74792;SHT30;63319;46.046;17.802;2024-01-30T01:19:47;0.90;80.51
74792;SHT30;63319;46.046;17.802;2024-01-30T01:22:50;0.97;81.53
74792;SHT30;63319;46.046;17.802;2024-01-30T01:25:53;0.66;81.63
74792;SHT30;63319;46.046;17.802;2024-01-30T01:28:59;0.87;81.28
74792;SHT30;63319;46.046;17.802;2024-01-30T01:32:02;0.97;81.49
74792;SHT30;63319;46.046;17.802;2024-01-30T01:35:05;0.83;81.30
74792;SHT30;63319;46.046;17.802;2024-01-30T01:38:08;0.59;81.82
74792;SHT30;63319;46.046;17.802;2024-01-30T01:41:12;0.62;82.53
74792;SHT30;63319;46.046;17.802;2024-01-30T01:44:15;0.66;82.42
74792;SHT30;63319;46.046;17.802;2024-01-30T01:47:18;0.87;81.91
74792;SHT30;63319;46.046;17.802;2024-01-30T01:50:21;1.14;81.85
74792;SHT30;63319;46.046;17.802;2024-01-30T01:53:26;0.97;81.78
74792;SHT30;63319;46.046;17.802;2024-01-30T01:56:30;0.59;82.61
74792;SHT30;63319;46.046;17.802;2024-01-30T01:59:34;0.62;83.54
74792;SHT30;63319;46.046;17.802;2024-01-30T02:02:39;0.99;81.91
74792;SHT30;63319;46.046;17.802;2024-01-30T02:05:42;0.66;81.17
74792;SHT30;63319;46.046;17.802;2024-01-30T02:08:45;1.06;81.74
74792;SHT30;63319;46.046;17.802;2024-01-30T02:11:48;0.79;81.18
74792;SHT30;63319;46.046;17.802;2024-01-30T02:14:51;0.64;82.05
74792;SHT30;63319;46.046;17.802;2024-01-30T02:17:56;1.16;82.09
74792;SHT30;63319;46.046;17.802;2024-01-30T02:21:03;1.20;80.68
74792;SHT30;63319;46.046;17.802;2024-01-30T02:24:06;1.48;80.11
74792;SHT30;63319;46.046;17.802;2024-01-30T02:27:09;1.16;78.85
74792;SHT30;63319;46.046;17.802;2024-01-30T02:30:12;0.65;81.37
74792;SHT30;63319;46.046;17.802;2024-01-30T02:33:15;0.79;80.73
74792;SHT30;63319;46.046;17.802;2024-01-30T02:36:19;0.99;82.44
74792;SHT30;63319;46.046;17.802;2024-01-30T02:39:22;1.20;80.25
74792;SHT30;63319;46.046;17.802;2024-01-30T02:42:25;0.70;81.59
74792;SHT30;63319;46.046;17.802;2024-01-30T02:45:28;0.28;82.95
74792;SHT30;63319;46.046;17.802;2024-01-30T02:48:31;0.82;83.42
74792;SHT30;63319;46.046;17.802;2024-01-30T02:51:34;0.78;81.29
74792;SHT30;63319;46.046;17.802;2024-01-30T02:54:37;0.47;83.47
74792;SHT30;63319;46.046;17.802;2024-01-30T02:57:40;0.52;81.95
74792;SHT30;63319;46.046;17.802;2024-01-30T03:00:43;0.44;83.32
74792;SHT30;63319;46.046;17.802;2024-01-30T03:03:46;0.41;82.61
74792;SHT30;63319;46.046;17.802;2024-01-30T03:06:49;0.85;81.79
74792;SHT30;63319;46.046;17.802;2024-01-30T03:09:52;0.85;81.42
74792;SHT30;63319;46.046;17.802;2024-01-30T03:12:58;1.34;80.36
74792;SHT30;63319;46.046;17.802;2024-01-30T03:16:01;1.59;78.38
74792;SHT30;63319;46.046;17.802;2024-01-30T03:19:06;0.85;79.80
74792;SHT30;63319;46.046;17.802;2024-01-30T03:22:13;0.96;81.82
74792;SHT30;63319;46.046;17.802;2024-01-30T03:25:16;1.54;78.61
74792;SHT30;63319;46.046;17.802;2024-01-30T03:28:19;1.43;80.60
74792;SHT30;63319;46.046;17.802;2024-01-30T03:31:22;1.96;78.29
74792;SHT30;63319;46.046;17.802;2024-01-30T03:34:25;1.62;77.12
74792;SHT30;63319;46.046;17.802;2024-01-30T03:37:28;1.50;77.40
74792;SHT30;63319;46.046;17.802;2024-01-30T03:40:31;1.48;78.99
74792;SHT30;63319;46.046;17.802;2024-01-30T03:43:34;0.96;78.73
74792;SHT30;63319;46.046;17.802;2024-01-30T03:46:37;1.55;78.76
74792;SHT30;63319;46.046;17.802;2024-01-30T03:49:40;0.64;80.54
74792;SHT30;63319;46.046;17.802;2024-01-30T03:52:43;1.12;79.27
74792;SHT30;63319;46.046;17.802;2024-01-30T03:55:46;1.13;78.19
74792;SHT30;63319;46.046;17.802;2024-01-30T03:58:49;1.14;79.98
74792;SHT30;63319;46.046;17.802;2024-01-30T04:01:52;0.52;80.69
74792;SHT30;63319;46.046;17.802;2024-01-30T04:04:55;0.41;82.03
74792;SHT30;63319;46.046;17.802;2024-01-30T04:07:59;0.21;82.73
74792;SHT30;63319;46.046;17.802;2024-01-30T04:11:05;0.15;82.61
74792;SHT30;63319;46.046;17.802;2024-01-30T04:14:08;0.30;83.24
74792;SHT30;63319;46.046;17.802;2024-01-30T04:17:11;0.24;82.09
74792;SHT30;63319;46.046;17.802;2024-01-30T04:20:15;0.42;83.53
74792;SHT30;63319;46.046;17.802;2024-01-30T04:23:19;0.11;82.78
74792;SHT30;63319;46.046;17.802;2024-01-30T04:26:22;0.38;81.91
74792;SHT30;63319;46.046;17.802;2024-01-30T04:29:25;0.40;81.47
74792;SHT30;63319;46.046;17.802;2024-01-30T04:32:28;0.27;82.00
74792;SHT30;63319;46.046;17.802;2024-01-30T04:35:31;0.27;82.48
74792;SHT30;63319;46.046;17.802;2024-01-30T04:38:34;0.20;83.59
74792;SHT30;63319;46.046;17.802;2024-01-30T04:41:37;0.06;82.78
74792;SHT30;63319;46.046;17.802;2024-01-30T04:44:40;-0.15;83.72
74792;SHT30;63319;46.046;17.802;2024-01-30T04:47:43;-0.09;83.81
74792;SHT30;63319;46.046;17.802;2024-01-30T04:50:46;0.25;83.01
74792;SHT30;63319;46.046;17.802;2024-01-30T04:53:49;0.14;82.29
74792;SHT30;63319;46.046;17.802;2024-01-30T04:56:52;0.10;82.73
74792;SHT30;63319;46.046;17.802;2024-01-30T04:59:55;-0.13;83.87
74792;SHT30;63319;46.046;17.802;2024-01-30T05:02:58;0.06;83.41
74792;SHT30;63319;46.046;17.802;2024-01-30T05:06:01;0.00;83.19
74792;SHT30;63319;46.046;17.802;2024-01-30T05:09:04;-0.20;83.79
74792;SHT30;63319;46.046;17.802;2024-01-30T05:12:07;-0.11;84.26
74792;SHT30;63319;46.046;17.802;2024-01-30T05:15:10;-0.11;83.34
74792;SHT30;63319;46.046;17.802;2024-01-30T05:18:13;-0.25;84.71
74792;SHT30;63319;46.046;17.802;2024-01-30T05:21:16;-0.48;84.83
74792;SHT30;63319;46.046;17.802;2024-01-30T05:24:19;-0.11;85.02
74792;SHT30;63319;46.046;17.802;2024-01-30T05:27:23;-0.28;84.68
74792;SHT30;63319;46.046;17.802;2024-01-30T05:30:26;-0.14;84.51
74792;SHT30;63319;46.046;17.802;2024-01-30T05:33:29;-0.09;84.08
74792;SHT30;63319;46.046;17.802;2024-01-30T05:36:32;-0.32;84.33
74792;SHT30;63319;46.046;17.802;2024-01-30T05:39:35;-0.52;85.23
74792;SHT30;63319;46.046;17.802;2024-01-30T05:42:38;-0.31;84.86
74792;SHT30;63319;46.046;17.802;2024-01-30T05:45:41;0.01;83.90
74792;SHT30;63319;46.046;17.802;2024-01-30T05:48:45;-0.09;83.91
74792;SHT30;63319;46.046;17.802;2024-01-30T05:51:48;0.31;82.20
74792;SHT30;63319;46.046;17.802;2024-01-30T05:54:51;0.04;83.69
74792;SHT30;63319;46.046;17.802;2024-01-30T05:57:54;-0.35;84.37
74792;SHT30;63319;46.046;17.802;2024-01-30T06:00:58;-0.10;84.09
74792;SHT30;63319;46.046;17.802;2024-01-30T06:04:01;-0.15;84.14
74792;SHT30;63319;46.046;17.802;2024-01-30T06:07:04;-0.24;84.39
74792;SHT30;63319;46.046;17.802;2024-01-30T06:10:09;-0.27;84.54
74792;SHT30;63319;46.046;17.802;2024-01-30T06:13:12;-0.38;84.70
74792;SHT30;63319;46.046;17.802;2024-01-30T06:16:15;-0.30;84.85
74792;SHT30;63319;46.046;17.802;2024-01-30T06:19:18;0.09;83.91
74792;SHT30;63319;46.046;17.802;2024-01-30T06:22:21;0.04;83.31
74792;SHT30;63319;46.046;17.802;2024-01-30T06:25:24;-0.01;83.61
74792;SHT30;63319;46.046;17.802;2024-01-30T06:28:27;-0.11;83.90
74792;SHT30;63319;46.046;17.802;2024-01-30T06:31:31;0.31;83.11
74792;SHT30;63319;46.046;17.802;2024-01-30T06:34:34;0.27;83.15
74792;SHT30;63319;46.046;17.802;2024-01-30T06:37:37;0.72;82.64
74792;SHT30;63319;46.046;17.802;2024-01-30T06:40:41;0.42;81.71
74792;SHT30;63319;46.046;17.802;2024-01-30T06:43:47;0.11;82.57
74792;SHT30;63319;46.046;17.802;2024-01-30T06:46:56;0.21;82.55
74792;SHT30;63319;46.046;17.802;2024-01-30T06:49:59;0.15;83.48
74792;SHT30;63319;46.046;17.802;2024-01-30T06:53:02;0.99;80.08
74792;SHT30;63319;46.046;17.802;2024-01-30T06:56:05;0.47;81.56
74792;SHT30;63319;46.046;17.802;2024-01-30T06:59:08;0.66;81.55
74792;SHT30;63319;46.046;17.802;2024-01-30T07:02:11;0.80;80.56
74792;SHT30;63319;46.046;17.802;2024-01-30T07:05:15;0.82;81.34
74792;SHT30;63319;46.046;17.802;2024-01-30T07:08:18;0.86;80.72
74792;SHT30;63319;46.046;17.802;2024-01-30T07:11:21;0.76;81.38
74792;SHT30;63319;46.046;17.802;2024-01-30T07:14:25;1.17;80.15
74792;SHT30;63319;46.046;17.802;2024-01-30T07:17:28;0.68;82.51
74792;SHT30;63319;46.046;17.802;2024-01-30T07:20:31;1.48;79.38
74792;SHT30;63319;46.046;17.802;2024-01-30T07:23:34;1.40;80.28
74792;SHT30;63319;46.046;17.802;2024-01-30T07:26:38;1.65;78.75
74792;SHT30;63319;46.046;17.802;2024-01-30T07:29:40;1.72;79.37
74792;SHT30;63319;46.046;17.802;2024-01-30T07:32:44;2.89;75.48
74792;SHT30;63319;46.046;17.802;2024-01-30T07:35:46;5.47;67.07
74792;SHT30;63319;46.046;17.802;2024-01-30T07:38:49;6.91;61.27
74792;SHT30;63319;46.046;17.802;2024-01-30T07:41:52;6.77;61.83
74792;SHT30;63319;46.046;17.802;2024-01-30T07:44:56;7.18;58.76
74792;SHT30;63319;46.046;17.802;2024-01-30T07:47:59;8.08;57.88
74792;SHT30;63319;46.046;17.802;2024-01-30T07:51:05;8.35;57.73
74792;SHT30;63319;46.046;17.802;2024-01-30T07:54:08;9.48;53.52
74792;SHT30;63319;46.046;17.802;2024-01-30T07:57:11;10.00;52.33
74792;SHT30;63319;46.046;17.802;2024-01-30T08:00:14;10.74;49.78
74792;SHT30;63319;46.046;17.802;2024-01-30T08:03:17;10.74;49.75
74792;SHT30;63319;46.046;17.802;2024-01-30T08:06:20;10.78;49.47
74792;SHT30;63319;46.046;17.802;2024-01-30T08:09:23;10.72;50.50
74792;SHT30;63319;46.046;17.802;2024-01-30T08:12:26;11.32;48.51
74792;SHT30;63319;46.046;17.802;2024-01-30T08:15:29;10.87;48.78
74792;SHT30;63319;46.046;17.802;2024-01-30T08:18:32;11.11;48.69
74792;SHT30;63319;46.046;17.802;2024-01-30T08:21:35;10.89;48.67
74792;SHT30;63319;46.046;17.802;2024-01-30T08:24:41;11.27;48.06
74792;SHT30;63319;46.046;17.802;2024-01-30T08:27:44;11.85;46.91
74792;SHT30;63319;46.046;17.802;2024-01-30T08:30:47;12.10;46.33
74792;SHT30;63319;46.046;17.802;2024-01-30T08:33:50;11.70;47.20
74792;SHT30;63319;46.046;17.802;2024-01-30T08:36:53;11.35;47.59
74792;SHT30;63319;46.046;17.802;2024-01-30T08:39:56;12.24;45.62
74792;SHT30;63319;46.046;17.802;2024-01-30T08:42:59;11.99;46.83
74792;SHT30;63319;46.046;17.802;2024-01-30T08:46:03;12.45;46.09
74792;SHT30;63319;46.046;17.802;2024-01-30T08:49:06;12.40;46.43
74792;SHT30;63319;46.046;17.802;2024-01-30T08:52:10;12.28;46.14
74792;SHT30;63319;46.046;17.802;2024-01-30T08:55:13;12.76;44.84
74792;SHT30;63319;46.046;17.802;2024-01-30T08:58:16;13.38;43.85
74792;SHT30;63319;46.046;17.802;2024-01-30T09:01:21;13.94;42.26
74792;SHT30;63319;46.046;17.802;2024-01-30T09:04:24;13.67;43.69
74792;SHT30;63319;46.046;17.802;2024-01-30T09:07:28;13.75;42.99
74792;SHT30;63319;46.046;17.802;2024-01-30T09:10:31;13.35;43.92
74792;SHT30;63319;46.046;17.802;2024-01-30T09:13:34;14.09;42.97
74792;SHT30;63319;46.046;17.802;2024-01-30T09:16:37;13.12;45.23
74792;SHT30;63319;46.046;17.802;2024-01-30T09:19:40;13.73;42.85
74792;SHT30;63319;46.046;17.802;2024-01-30T09:22:44;14.02;42.72
74792;SHT30;63319;46.046;17.802;2024-01-30T09:25:47;14.86;41.19
74792;SHT30;63319;46.046;17.802;2024-01-30T09:28:50;14.55;41.60
74792;SHT30;63319;46.046;17.802;2024-01-30T09:31:54;14.55;41.40
74792;SHT30;63319;46.046;17.802;2024-01-30T09:34:56;14.16;42.91
74792;SHT30;63319;46.046;17.802;2024-01-30T09:37:59;14.34;42.43
74792;SHT30;63319;46.046;17.802;2024-01-30T09:41:05;14.64;41.19
74792;SHT30;63319;46.046;17.802;2024-01-30T09:44:12;15.64;39.95
74792;SHT30;63319;46.046;17.802;2024-01-30T09:47:16;14.83;41.57
74792;SHT30;63319;46.046;17.802;2024-01-30T09:50:20;15.29;39.62
74792;SHT30;63319;46.046;17.802;2024-01-30T09:53:23;15.04;40.45
74792;SHT30;63319;46.046;17.802;2024-01-30T09:56:27;15.14;40.85
74792;SHT30;63319;46.046;17.802;2024-01-30T09:59:30;14.54;42.28
74792;SHT30;63319;46.046;17.802;2024-01-30T10:02:33;15.10;40.52
74792;SHT30;63319;46.046;17.802;2024-01-30T10:05:37;11.75;47.25
74792;SHT30;63319;46.046;17.802;2024-01-30T10:08:42;11.59;48.72
74792;SHT30;63319;46.046;17.802;2024-01-30T10:11:45;10.23;52.25
74792;SHT30;63319;46.046;17.802;2024-01-30T10:14:48;9.27;54.95
74792;SHT30;63319;46.046;17.802;2024-01-30T10:17:51;8.83;57.65
74792;SHT30;63319;46.046;17.802;2024-01-30T10:20:54;9.72;55.10
74792;SHT30;63319;46.046;17.802;2024-01-30T10:23:57;9.26;55.70
74792;SHT30;63319;46.046;17.802;2024-01-30T10:27:00;10.68;52.71
74792;SHT30;63319;46.046;17.802;2024-01-30T10:30:04;11.95;49.64
74792;SHT30;63319;46.046;17.802;2024-01-30T10:33:07;13.22;46.69
74792;SHT30;63319;46.046;17.802;2024-01-30T10:36:13;14.14;42.83
74792;SHT30;63319;46.046;17.802;2024-01-30T10:39:21;13.44;43.17
74792;SHT30;63319;46.046;17.802;2024-01-30T10:42:26;14.71;42.14
74792;SHT30;63319;46.046;17.802;2024-01-30T10:45:30;15.02;41.60
74792;SHT30;63319;46.046;17.802;2024-01-30T10:48:36;15.92;39.61
74792;SHT30;63319;46.046;17.802;2024-01-30T10:51:46;16.39;38.43
74792;SHT30;63319;46.046;17.802;2024-01-30T10:54:53;15.29;41.65
74792;SHT30;63319;46.046;17.802;2024-01-30T10:57:57;15.94;38.65
74792;SHT30;63319;46.046;17.802;2024-01-30T11:01:02;15.89;39.13
74792;SHT30;63319;46.046;17.802;2024-01-30T11:04:06;16.34;38.37
74792;SHT30;63319;46.046;17.802;2024-01-30T11:07:17;16.16;38.75
74792;SHT30;63319;46.046;17.802;2024-01-30T11:10:20;15.43;40.35
74792;SHT30;63319;46.046;17.802;2024-01-30T11:13:30;16.83;37.52
74792;SHT30;63319;46.046;17.802;2024-01-30T11:16:33;17.08;37.06
74792;SHT30;63319;46.046;17.802;2024-01-30T11:19:36;16.98;37.12
74792;SHT30;63319;46.046;17.802;2024-01-30T11:22:41;16.92;37.67
74792;SHT30;63319;46.046;17.802;2024-01-30T11:25:44;17.35;36.31
74792;SHT30;63319;46.046;17.802;2024-01-30T11:28:52;16.96;37.25
74792;SHT30;63319;46.046;17.802;2024-01-30T11:31:57;17.22;36.42
74792;SHT30;63319;46.046;17.802;2024-01-30T11:35:04;16.68;37.31
74792;SHT30;63319;46.046;17.802;2024-01-30T11:38:10;17.77;35.43
74792;SHT30;63319;46.046;17.802;2024-01-30T11:41:14;17.43;36.24
74792;SHT30;63319;46.046;17.802;2024-01-30T11:44:19;17.18;36.24
74792;SHT30;63319;46.046;17.802;2024-01-30T11:47:23;17.62;35.43
74792;SHT30;63319;46.046;17.802;2024-01-30T11:50:26;17.98;34.70
74792;SHT30;63319;46.046;17.802;2024-01-30T11:53:29;17.60;34.42
74792;SHT30;63319;46.046;17.802;2024-01-30T11:56:32;18.48;33.39
74792;SHT30;63319;46.046;17.802;2024-01-30T11:59:35;17.89;35.07
74792;SHT30;63319;46.046;17.802;2024-01-30T12:02:39;17.38;34.81
74792;SHT30;63319;46.046;17.802;2024-01-30T12:05:42;17.90;34.33
74792;SHT30;63319;46.046;17.802;2024-01-30T12:08:59;17.71;33.86
74792;SHT30;63319;46.046;17.802;2024-01-30T12:12:02;18.32;32.55
74792;SHT30;63319;46.046;17.802;2024-01-30T12:15:06;18.44;33.31
74792;SHT30;63319;46.046;17.802;2024-01-30T12:18:09;18.00;33.81
74792;SHT30;63319;46.046;17.802;2024-01-30T12:21:15;18.46;32.98
74792;SHT30;63319;46.046;17.802;2024-01-30T12:24:18;18.18;33.33
74792;SHT30;63319;46.046;17.802;2024-01-30T12:27:25;18.25;32.67
74792;SHT30;63319;46.046;17.802;2024-01-30T12:30:29;17.65;32.91
74792;SHT30;63319;46.046;17.802;2024-01-30T12:33:32;17.49;32.85
74792;SHT30;63319;46.046;17.802;2024-01-30T12:36:35;17.04;33.56
74792;SHT30;63319;46.046;17.802;2024-01-30T12:39:39;17.91;32.91
74792;SHT30;63319;46.046;17.802;2024-01-30T12:42:42;17.52;33.97
74792;SHT30;63319;46.046;17.802;2024-01-30T12:45:47;17.74;33.49
74792;SHT30;63319;46.046;17.802;2024-01-30T12:48:50;16.91;33.60
74792;SHT30;63319;46.046;17.802;2024-01-30T12:51:53;17.53;32.76
74792;SHT30;63319;46.046;17.802;2024-01-30T12:54:56;17.23;33.83
74792;SHT30;63319;46.046;17.802;2024-01-30T12:57:59;17.47;32.94
74792;SHT30;63319;46.046;17.802;2024-01-30T13:01:02;16.80;34.10
74792;SHT30;63319;46.046;17.802;2024-01-30T13:04:05;16.94;32.93
74792;SHT30;63319;46.046;17.802;2024-01-30T13:07:09;17.63;32.58
74792;SHT30;63319;46.046;17.802;2024-01-30T13:10:12;17.21;32.73
74792;SHT30;63319;46.046;17.802;2024-01-30T13:13:15;17.25;33.19
74792;SHT30;63319;46.046;17.802;2024-01-30T13:16:22;16.89;33.24
74792;SHT30;63319;46.046;17.802;2024-01-30T13:19:26;16.39;34.03
74792;SHT30;63319;46.046;17.802;2024-01-30T13:22:29;16.75;33.48
74792;SHT30;63319;46.046;17.802;2024-01-30T13:25:32;16.54;33.66
74792;SHT30;63319;46.046;17.802;2024-01-30T13:28:35;16.85;32.44
74792;SHT30;63319;46.046;17.802;2024-01-30T13:31:38;16.89;32.48
74792;SHT30;63319;46.046;17.802;2024-01-30T13:34:42;15.51;33.63
74792;SHT30;63319;46.046;17.802;2024-01-30T13:37:45;15.77;34.27
74792;SHT30;63319;46.046;17.802;2024-01-30T13:40:50;15.98;34.31
74792;SHT30;63319;46.046;17.802;2024-01-30T13:43:53;15.77;34.55
74792;SHT30;63319;46.046;17.802;2024-01-30T13:46:56;15.10;35.66
74792;SHT30;63319;46.046;17.802;2024-01-30T13:49:59;15.53;35.46
74792;SHT30;63319;46.046;17.802;2024-01-30T13:53:03;14.60;36.48
74792;SHT30;63319;46.046;17.802;2024-01-30T13:56:07;13.94;37.72
74792;SHT30;63319;46.046;17.802;2024-01-30T13:59:10;13.19;39.01
74792;SHT30;63319;46.046;17.802;2024-01-30T14:02:12;12.90;40.17
74792;SHT30;63319;46.046;17.802;2024-01-30T14:05:15;13.34;39.00
74792;SHT30;63319;46.046;17.802;2024-01-30T14:08:19;12.86;39.83
74792;SHT30;63319;46.046;17.802;2024-01-30T14:11:24;11.81;42.55
74792;SHT30;63319;46.046;17.802;2024-01-30T14:14:27;11.66;42.59
74792;SHT30;63319;46.046;17.802;2024-01-30T14:17:30;11.27;43.75
74792;SHT30;63319;46.046;17.802;2024-01-30T14:20:32;10.61;45.45
74792;SHT30;63319;46.046;17.802;2024-01-30T14:23:35;10.41;46.11
74792;SHT30;63319;46.046;17.802;2024-01-30T14:26:38;10.06;46.99
74792;SHT30;63319;46.046;17.802;2024-01-30T14:29:41;9.42;48.49
74792;SHT30;63319;46.046;17.802;2024-01-30T14:32:45;8.73;50.26
74792;SHT30;63319;46.046;17.802;2024-01-30T14:35:49;8.46;50.26
74792;SHT30;63319;46.046;17.802;2024-01-30T14:38:54;8.34;51.21
74792;SHT30;63319;46.046;17.802;2024-01-30T14:41:57;8.24;51.12
74792;SHT30;63319;46.046;17.802;2024-01-30T14:45:01;7.93;52.10
74792;SHT30;63319;46.046;17.802;2024-01-30T14:48:04;7.87;53.02
74792;SHT30;63319;46.046;17.802;2024-01-30T14:51:07;7.77;53.08
74792;SHT30;63319;46.046;17.802;2024-01-30T14:54:10;7.58;54.37
74792;SHT30;63319;46.046;17.802;2024-01-30T14:57:14;7.61;54.64
74792;SHT30;63319;46.046;17.802;2024-01-30T15:00:17;7.38;55.67
74792;SHT30;63319;46.046;17.802;2024-01-30T15:03:21;7.36;55.44
74792;SHT30;63319;46.046;17.802;2024-01-30T15:06:24;7.18;56.67
74792;SHT30;63319;46.046;17.802;2024-01-30T15:09:27;7.18;57.12
74792;SHT30;63319;46.046;17.802;2024-01-30T15:12:33;7.05;57.70
74792;SHT30;63319;46.046;17.802;2024-01-30T15:15:36;6.98;58.41
74792;SHT30;63319;46.046;17.802;2024-01-30T15:18:39;6.90;58.72
74792;SHT30;63319;46.046;17.802;2024-01-30T15:21:42;6.66;59.58
74792;SHT30;63319;46.046;17.802;2024-01-30T15:24:45;6.66;60.01
74792;SHT30;63319;46.046;17.802;2024-01-30T15:27:48;6.57;60.22
74792;SHT30;63319;46.046;17.802;2024-01-30T15:30:51;6.52;60.47
74792;SHT30;63319;46.046;17.802;2024-01-30T15:33:54;6.39;60.27
74792;SHT30;63319;46.046;17.802;2024-01-30T15:36:57;6.28;61.18
74792;SHT30;63319;46.046;17.802;2024-01-30T15:40:01;6.02;62.07
74792;SHT30;63319;46.046;17.802;2024-01-30T15:43:05;6.17;62.26
74792;SHT30;63319;46.046;17.802;2024-01-30T15:46:08;5.90;62.77
74792;SHT30;63319;46.046;17.802;2024-01-30T15:49:11;5.91;62.88
74792;SHT30;63319;46.046;17.802;2024-01-30T15:52:14;5.83;63.07
74792;SHT30;63319;46.046;17.802;2024-01-30T15:55:20;5.77;63.21
74792;SHT30;63319;46.046;17.802;2024-01-30T15:58:23;5.67;63.58
74792;SHT30;63319;46.046;17.802;2024-01-30T16:01:26;5.56;63.93
74792;SHT30;63319;46.046;17.802;2024-01-30T16:04:29;5.42;64.47
74792;SHT30;63319;46.046;17.802;2024-01-30T16:07:32;5.31;65.07
74792;SHT30;63319;46.046;17.802;2024-01-30T16:10:36;5.19;65.26
74792;SHT30;63319;46.046;17.802;2024-01-30T16:13:39;5.08;65.69
74792;SHT30;63319;46.046;17.802;2024-01-30T16:16:42;5.04;66.02
74792;SHT30;63319;46.046;17.802;2024-01-30T16:19:47;4.99;66.38
74792;SHT30;63319;46.046;17.802;2024-01-30T16:22:51;4.95;66.78
74792;SHT30;63319;46.046;17.802;2024-01-30T16:25:57;4.83;66.89
74792;SHT30;63319;46.046;17.802;2024-01-30T16:29:00;4.60;67.96
74792;SHT30;63319;46.046;17.802;2024-01-30T16:32:03;4.75;68.17
74792;SHT30;63319;46.046;17.802;2024-01-30T16:35:06;4.39;69.49
74792;SHT30;63319;46.046;17.802;2024-01-30T16:38:09;4.46;68.41
74792;SHT30;63319;46.046;17.802;2024-01-30T16:41:12;4.42;68.80
74792;SHT30;63319;46.046;17.802;2024-01-30T16:44:15;4.40;69.63
74792;SHT30;63319;46.046;17.802;2024-01-30T16:47:18;4.39;70.14
74792;SHT30;63319;46.046;17.802;2024-01-30T16:50:21;4.39;69.70
74792;SHT30;63319;46.046;17.802;2024-01-30T16:53:24;4.28;70.05
74792;SHT30;63319;46.046;17.802;2024-01-30T16:56:27;4.28;69.39
74792;SHT30;63319;46.046;17.802;2024-01-30T16:59:30;4.30;69.51
74792;SHT30;63319;46.046;17.802;2024-01-30T17:02:33;3.85;71.00
74792;SHT30;63319;46.046;17.802;2024-01-30T17:05:36;3.78;71.35
74792;SHT30;63319;46.046;17.802;2024-01-30T17:08:39;3.87;72.19
74792;SHT30;63319;46.046;17.802;2024-01-30T17:11:42;3.78;71.90
74792;SHT30;63319;46.046;17.802;2024-01-30T17:14:46;3.57;72.85
74792;SHT30;63319;46.046;17.802;2024-01-30T17:17:49;3.78;73.08
74792;SHT30;63319;46.046;17.802;2024-01-30T17:20:52;3.94;72.62
74792;SHT30;63319;46.046;17.802;2024-01-30T17:23:55;3.88;72.41
74792;SHT30;63319;46.046;17.802;2024-01-30T17:26:58;3.74;73.21
74792;SHT30;63319;46.046;17.802;2024-01-30T17:30:03;3.63;73.28
74792;SHT30;63319;46.046;17.802;2024-01-30T17:33:07;3.49;74.22
74792;SHT30;63319;46.046;17.802;2024-01-30T17:36:10;3.60;73.36
74792;SHT30;63319;46.046;17.802;2024-01-30T17:39:13;3.41;74.39
74792;SHT30;63319;46.046;17.802;2024-01-30T17:42:16;3.39;74.19
74792;SHT30;63319;46.046;17.802;2024-01-30T17:45:23;3.49;73.38
74792;SHT30;63319;46.046;17.802;2024-01-30T17:48:26;3.41;73.63
74792;SHT30;63319;46.046;17.802;2024-01-30T17:51:29;3.19;74.19
74792;SHT30;63319;46.046;17.802;2024-01-30T17:54:32;3.02;75.07
74792;SHT30;63319;46.046;17.802;2024-01-30T17:57:35;3.37;73.23
74792;SHT30;63319;46.046;17.802;2024-01-30T18:00:38;3.26;73.91
74792;SHT30;63319;46.046;17.802;2024-01-30T18:03:41;3.08;73.94
74792;SHT30;63319;46.046;17.802;2024-01-30T18:06:51;3.18;73.66
74792;SHT30;63319;46.046;17.802;2024-01-30T18:09:55;3.26;73.19
74792;SHT30;63319;46.046;17.802;2024-01-30T18:12:59;3.13;73.63
74792;SHT30;63319;46.046;17.802;2024-01-30T18:16:04;3.01;74.08
74792;SHT30;63319;46.046;17.802;2024-01-30T18:19:07;3.15;73.55
74792;SHT30;63319;46.046;17.802;2024-01-30T18:22:10;3.10;73.42
74792;SHT30;63319;46.046;17.802;2024-01-30T18:25:13;2.98;73.57
74792;SHT30;63319;46.046;17.802;2024-01-30T18:28:16;2.89;73.85
74792;SHT30;63319;46.046;17.802;2024-01-30T18:31:19;2.82;73.64
74792;SHT30;63319;46.046;17.802;2024-01-30T18:34:22;2.78;74.24
74792;SHT30;63319;46.046;17.802;2024-01-30T18:37:26;2.80;74.33
74792;SHT30;63319;46.046;17.802;2024-01-30T18:40:29;2.81;73.80
74792;SHT30;63319;46.046;17.802;2024-01-30T18:43:32;2.82;73.71
74792;SHT30;63319;46.046;17.802;2024-01-30T18:46:37;2.77;73.66
74792;SHT30;63319;46.046;17.802;2024-01-30T18:49:41;2.58;74.16
74792;SHT30;63319;46.046;17.802;2024-01-30T18:52:45;2.66;74.38
74792;SHT30;63319;46.046;17.802;2024-01-30T18:55:49;2.71;73.89
74792;SHT30;63319;46.046;17.802;2024-01-30T18:58:53;2.58;74.35
74792;SHT30;63319;46.046;17.802;2024-01-30T19:01:57;2.61;74.52
74792;SHT30;63319;46.046;17.802;2024-01-30T19:05:01;2.48;74.73
74792;SHT30;63319;46.046;17.802;2024-01-30T19:08:07;2.53;74.73
74792;SHT30;63319;46.046;17.802;2024-01-30T19:11:20;2.48;74.45